createdAt,value
2023-05-04T00:05:10.506Z,15.40
2023-05-04T00:15:14.128Z,13.30
2023-05-04T00:25:21.330Z,11.40
2023-05-04T00:35:25.463Z,11.60
2023-05-04T00:45:29.694Z,9.00
2023-05-04T00:55:41.661Z,7.60
2023-05-04T01:06:16.494Z,8.20
2023-05-04T01:16:22.127Z,9.40
2023-05-04T01:26:31.774Z,11.80
2023-05-04T01:36:36.469Z,17.00
2023-05-04T01:46:43.249Z,14.70
2023-05-04T01:56:48.965Z,15.50
2023-05-04T02:06:52.802Z,14.50
2023-05-04T02:16:56.579Z,13.10
2023-05-04T02:27:00.234Z,12.30
2023-05-04T02:37:07.085Z,27.40
2023-05-04T02:47:13.654Z,13.20
2023-05-04T02:57:18.250Z,11.60
2023-05-04T03:07:21.954Z,12.10
2023-05-04T03:17:27.216Z,19.50
2023-05-04T03:27:32.825Z,11.40
2023-05-04T03:37:36.581Z,9.10
2023-05-04T03:47:42.343Z,15.10
2023-05-04T03:57:46.345Z,11.10
2023-05-04T04:07:50.581Z,14.40
2023-05-04T04:17:58.375Z,28.20
2023-05-04T04:28:02.231Z,18.80
2023-05-04T04:38:07.683Z,12.20
2023-05-04T04:48:13.628Z,14.00
2023-05-04T04:58:17.200Z,12.70
2023-05-04T05:08:23.561Z,12.30
2023-05-04T05:18:27.434Z,6.50
2023-05-04T05:28:32.711Z,7.00
2023-05-04T05:38:37.350Z,6.20
2023-05-04T05:48:41.518Z,13.90
2023-05-04T05:58:46.713Z,5.20
2023-05-04T06:08:50.411Z,5.20
2023-05-04T06:18:53.979Z,4.00
2023-05-04T06:28:59.508Z,4.30
2023-05-04T06:39:03.191Z,5.20
2023-05-04T06:49:07.070Z,4.40
2023-05-04T06:59:10.821Z,4.40
2023-05-04T07:09:18.807Z,4.70
2023-05-04T07:19:22.524Z,3.50
2023-05-04T07:29:26.752Z,3.60
2023-05-04T07:39:30.537Z,2.90
2023-05-04T07:49:34.585Z,2.90
2023-05-04T07:59:38.229Z,2.50
2023-05-04T08:09:41.938Z,2.20
2023-05-04T08:19:48.330Z,2.80
2023-05-04T08:29:52.292Z,3.40
2023-05-04T08:39:57.915Z,2.00
2023-05-04T08:50:03.665Z,2.40
2023-05-04T09:00:11.325Z,1.80
2023-05-04T09:10:17.040Z,1.90
2023-05-04T09:20:21.701Z,2.20
2023-05-04T09:30:25.442Z,2.80
2023-05-04T09:40:32.910Z,2.10
2023-05-04T09:50:38.270Z,2.50
2023-05-04T10:00:42.969Z,2.10
2023-05-04T10:10:46.788Z,2.20
2023-05-04T10:21:03.043Z,2.10
2023-05-04T10:31:07.647Z,7.80
2023-05-04T10:41:19.870Z,2.00
2023-05-04T10:51:32.623Z,1.90
2023-05-04T11:01:47.624Z,3.00
2023-05-04T11:11:53.974Z,1.80
2023-05-04T11:21:58.231Z,1.80
2023-05-04T11:32:01.936Z,1.90
2023-05-04T11:42:10.768Z,8.00
2023-05-04T11:52:14.943Z,2.00
2023-05-04T12:02:19.022Z,2.30
2023-05-04T12:12:36.065Z,1.80
2023-05-04T12:22:39.785Z,7.40
2023-05-04T12:32:44.193Z,2.40
2023-05-04T12:42:48.120Z,2.80
2023-05-04T12:52:51.664Z,2.50
2023-05-04T13:02:55.208Z,2.30
2023-05-04T13:12:58.899Z,2.60
2023-05-04T13:23:04.478Z,2.10
2023-05-04T13:33:20.610Z,2.30
2023-05-04T13:43:32.109Z,2.40
2023-05-04T13:53:35.850Z,2.30
2023-05-04T14:03:39.453Z,2.90
2023-05-04T14:13:44.784Z,3.10
2023-05-04T14:23:48.498Z,2.50
2023-05-04T14:33:52.403Z,2.50
2023-05-04T14:44:00.627Z,2.30
2023-05-04T14:54:04.493Z,2.40
2023-05-04T15:04:08.181Z,2.40
2023-05-04T15:14:15.717Z,2.60
2023-05-04T15:24:19.325Z,2.50
2023-05-04T15:34:22.865Z,2.50
2023-05-04T15:44:29.866Z,2.70
2023-05-04T15:54:33.802Z,2.40
2023-05-04T16:04:38.786Z,2.30
2023-05-04T16:14:44.125Z,3.10
2023-05-04T16:24:50.293Z,2.50
2023-05-04T16:34:53.947Z,3.00
2023-05-04T16:44:58.795Z,3.50
2023-05-04T16:55:02.630Z,8.10
2023-05-04T17:05:10.627Z,3.80
2023-05-04T17:15:14.387Z,4.30
2023-05-04T17:25:20.563Z,4.60
2023-05-04T17:35:26.208Z,4.00
2023-05-04T17:45:30.440Z,4.20
2023-05-04T17:55:36.124Z,11.60
2023-05-04T18:05:43.922Z,9.50
2023-05-04T18:15:47.865Z,14.30
2023-05-04T18:25:51.562Z,5.90
2023-05-04T18:35:55.345Z,4.80
2023-05-04T18:46:10.144Z,4.10
2023-05-04T18:56:13.942Z,4.90
2023-05-04T19:06:17.714Z,6.10
2023-05-04T19:16:22.854Z,4.00
2023-05-04T19:26:28.881Z,4.20
2023-05-04T19:36:34.802Z,3.60
2023-05-04T19:46:41.704Z,3.40
2023-05-04T19:56:45.414Z,4.20
2023-05-04T20:06:49.167Z,5.40
2023-05-04T20:16:56.014Z,4.60
2023-05-04T20:27:00.412Z,3.50
2023-05-04T20:37:03.994Z,5.00
2023-05-04T20:47:10.846Z,5.10
2023-05-04T20:57:14.606Z,7.00
2023-05-04T21:07:18.460Z,5.00
2023-05-04T21:17:25.774Z,3.50
2023-05-04T21:27:33.504Z,2.70
2023-05-04T21:37:37.499Z,3.60
2023-05-04T21:47:41.109Z,3.70
2023-05-04T21:57:46.697Z,3.70
2023-05-04T22:07:50.662Z,3.80
2023-05-04T22:17:59.389Z,3.80
2023-05-04T22:28:03.867Z,3.90
2023-05-04T22:39:11.326Z,32.00
2023-05-04T22:49:17.672Z,4.10
2023-05-04T22:59:21.269Z,4.20
2023-05-04T23:09:24.921Z,3.80
2023-05-04T23:19:32.065Z,4.70
2023-05-04T23:29:35.808Z,4.50
2023-05-04T23:39:40.291Z,5.70
2023-05-04T23:49:47.407Z,4.80
2023-05-04T23:59:52.583Z,4.40
